| time (UTC) | temp C | wind direction | speed KPH | gust KPH | rain 1hr cm | rain 24hr cm | rain mn cm | humidity % | barometer mb |
| 20260509224009 | 16 | 197 | 11.3 | 22.5 | 0.00 | 0.00 | 0.00 | 70 | 1002.9 |
| 20260509222009 | 16 | 194 | 6.4 | 25.7 | 0.00 | 0.00 | 0.00 | 68 | 1002.9 |
| 20260509221009 | 16 | 210 | 11.3 | 25.7 | 0.00 | 0.00 | 0.00 | 67 | 1002.7 |
| 20260509220009 | 16 | 188 | 17.7 | 30.6 | 0.00 | 0.00 | 0.00 | 66 | 1002.6 |
| 20260509215009 | 16 | 197 | 16.1 | 33.8 | 0.00 | 0.00 | 0.00 | 66 | 1002.6 |
| 20260509214009 | 15 | 198 | 16.1 | 32.2 | 0.00 | 0.00 | 0.00 | 62 | 1002.6 |
| 20260509213009 | 16 | 208 | 16.1 | 29.0 | 0.00 | 0.00 | 0.00 | 62 | 1002.6 |
| 20260509211009 | 16 | 200 | 20.9 | 35.4 | 0.00 | 0.00 | 0.00 | 61 | 1002.9 |
| 20260509210010 | 16 | 206 | 22.5 | 35.4 | 0.00 | 0.00 | 0.00 | 63 | 1003.0 |
| 20260509205009 | 16 | 203 | 24.1 | 35.4 | 0.00 | 0.00 | 0.00 | 63 | 1003.0 |
| 20260509204009 | 16 | 202 | 22.5 | 32.2 | 0.00 | 0.00 | 0.00 | 62 | 1003.0 |
| 20260509203009 | 16 | 195 | 16.1 | 29.0 | 0.00 | 0.00 | 0.00 | 59 | 1003.0 |
| 20260509202008 | 16 | 205 | 17.7 | 29.0 | 0.00 | 0.00 | 0.00 | 60 | 1003.1 |
| 20260509201009 | 16 | 209 | 14.5 | 29.0 | 0.00 | 0.00 | 0.00 | 62 | 1003.2 |
| 20260509195009 | 16 | 195 | 22.5 | 38.6 | 0.00 | 0.00 | 0.00 | 60 | 1003.5 |
| 20260509194008 | 16 | 200 | 20.9 | 32.2 | 0.00 | 0.00 | 0.00 | 58 | 1003.5 |
| 20260509193009 | 16 | 197 | 19.3 | 38.6 | 0.00 | 0.00 | 0.00 | 51 | 1003.6 |
| 20260509192009 | 16 | 207 | 16.1 | 35.4 | 0.00 | 0.00 | 0.00 | 55 | 1003.8 |
| 20260509191009 | 16 | 202 | 20.9 | 37.0 | 0.00 | 0.00 | 0.00 | 59 | 1003.9 |
| 20260509185008 | 16 | 199 | 16.1 | 29.0 | 0.00 | 0.00 | 0.00 | 60 | 1004.0 |
| 20260509184009 | 16 | 198 | 19.3 | 32.2 | 0.00 | 0.00 | 0.00 | 61 | 1004.1 |
| 20260509183009 | 16 | 216 | 17.7 | 32.2 | 0.00 | 0.00 | 0.00 | 61 | 1004.3 |
| 20260509182009 | 16 | 203 | 19.3 | 32.2 | 0.00 | 0.00 | 0.00 | 60 | 1004.5 |
| 20260509181010 | 16 | 199 | 11.3 | 25.7 | 0.00 | 0.00 | 0.00 | 63 | 1004.6 |
| 20260509180009 | 16 | 193 | 12.9 | 32.2 | 0.00 | 0.00 | 0.00 | 60 | 1004.6 |
| 20260509175009 | 16 | 198 | 14.5 | 30.6 | 0.00 | 0.00 | 0.00 | 56 | 1004.7 |
| 20260509174009 | 16 | 193 | 9.7 | 29.0 | 0.00 | 0.00 | 0.00 | 57 | 1004.7 |
| 20260509173009 | 16 | 195 | 8.0 | 29.0 | 0.00 | 0.00 | 0.00 | 55 | 1004.8 |
| 20260509172009 | 16 | 204 | 12.9 | 32.2 | 0.00 | 0.00 | 0.00 | 54 | 1004.9 |
| 20260509171009 | 16 | 200 | 12.9 | 27.4 | 0.00 | 0.00 | 0.00 | 51 | 1005.1 |
| 20260509170009 | 16 | 190 | 8.0 | 27.4 | 0.00 | 0.00 | 0.00 | 55 | 1005.2 |
| 20260509165009 | 16 | 195 | 6.4 | 20.9 | 0.00 | 0.00 | 0.00 | 49 | 1005.4 |
| 20260509163009 | 15 | 197 | 12.9 | 30.6 | 0.00 | 0.00 | 0.00 | 48 | 1005.7 |
| 20260509162009 | 15 | 195 | 12.9 | 27.4 | 0.00 | 0.00 | 0.00 | 46 | 1005.8 |
| 20260509161009 | 15 | 195 | 8.0 | 25.7 | 0.00 | 0.00 | 0.00 | 52 | 1006.0 |
| 20260509160009 | 15 | 194 | 8.0 | 22.5 | 0.00 | 0.00 | 0.00 | 50 | 1006.2 |
| 20260509155008 | 15 | 196 | 4.8 | 22.5 | 0.00 | 0.00 | 0.00 | 51 | 1006.3 |
| 20260509154009 | 15 | 200 | 12.9 | 25.7 | 0.00 | 0.00 | 0.00 | 49 | 1006.5 |
| 20260509153009 | 15 | 202 | 4.8 | 20.9 | 0.00 | 0.00 | 0.00 | 52 | 1006.7 |
| 20260509152009 | 14 | 208 | 11.3 | 25.7 | 0.00 | 0.00 | 0.00 | 50 | 1006.9 |
| 20260509151009 | 14 | 206 | 6.4 | 29.0 | 0.00 | 0.00 | 0.00 | 52 | 1007.0 |
| 20260509150009 | 14 | 192 | 1.6 | 16.1 | 0.00 | 0.00 | 0.00 | 56 | 1007.1 |
| 20260509145009 | 13 | 181 | 3.2 | 20.9 | 0.00 | 0.00 | 0.00 | 56 | 1007.2 |
| 20260509144009 | 13 | 198 | 4.8 | 20.9 | 0.00 | 0.00 | 0.00 | 57 | 1007.3 |
| 20260509143009 | 13 | 185 | 1.6 | 22.5 | 0.00 | 0.00 | 0.00 | 55 | 1007.3 |
| 20260509142008 | 13 | 0 | 0.0 | 8.0 | 0.00 | 0.00 | 0.00 | 58 | 1007.4 |
| 20260509140009 | 12 | 186 | 4.8 | 19.3 | 0.00 | 0.00 | 0.00 | 57 | 1007.4 |
| 20260509135009 | 12 | 198 | 1.6 | 16.1 | 0.00 | 0.00 | 0.00 | 59 | 1007.4 |
| 20260509134009 | 12 | 197 | 9.7 | 22.5 | 0.00 | 0.00 | 0.00 | 58 | 1007.5 |
| 20260509133009 | 11 | 193 | 1.6 | 17.7 | 0.00 | 0.00 | 0.00 | 60 | 1007.6 |
| 20260509132009 | 11 | 185 | 3.2 | 16.1 | 0.00 | 0.00 | 0.00 | 63 | 1007.8 |
| 20260509131008 | 10 | 0 | 0.0 | 17.7 | 0.00 | 0.00 | 0.00 | 63 | 1007.9 |
| 20260509130009 | 10 | 0 | 0.0 | 0.0 | 0.00 | 0.00 | 0.00 | 66 | 1007.9 |
| 20260509124008 | 8 | 0 | 0.0 | 0.0 | 0.00 | 0.00 | 0.00 | 70 | 1007.9 |
| 20260509123009 | 7 | 0 | 0.0 | 0.0 | 0.00 | 0.00 | 0.00 | 72 | 1008.0 |
| 20260509122009 | 7 | 0 | 0.0 | 0.0 | 0.00 | 0.00 | 0.00 | 75 | 1008.1 |
| 20260509120009 | 6 | 0 | 0.0 | 0.0 | 0.00 | 0.00 | 0.00 | 77 | 1008.2 |
| 20260509115009 | 6 | 0 | 0.0 | 0.0 | 0.00 | 0.00 | 0.00 | 76 | 1008.3 |
| 20260509114009 | 5 | 0 | 0.0 | 0.0 | 0.00 | 0.00 | 0.00 | 78 | 1008.2 |
| 20260509113009 | 5 | 0 | 0.0 | 0.0 | 0.00 | 0.00 | 0.00 | 83 | 1008.3 |
| 20260509112008 | 5 | 0 | 0.0 | 0.0 | 0.00 | 0.00 | 0.00 | 87 | 1008.2 |
| 20260509110009 | 4 | 0 | 0.0 | 0.0 | 0.00 | 0.00 | 0.00 | 92 | 1008.1 |
| 20260509105008 | 3 | 0 | 0.0 | 0.0 | 0.00 | 0.00 | 0.00 | 93 | 1008.1 |
| 20260509104008 | 3 | 0 | 0.0 | 0.0 | 0.00 | 0.00 | 0.00 | 94 | 1007.9 |
| 20260509103009 | 3 | 0 | 0.0 | 0.0 | 0.00 | 0.00 | 0.00 | 94 | 1007.9 |
| 20260509102008 | 3 | 0 | 0.0 | 0.0 | 0.00 | 0.00 | 0.00 | 93 | 1007.8 |
| 20260509100009 | 3 | 0 | 0.0 | 0.0 | 0.00 | 0.00 | 0.00 | 92 | 1007.7 |
| 20260509095008 | 3 | 0 | 0.0 | 0.0 | 0.00 | 0.00 | 0.00 | 92 | 1007.8 |
| 20260509094009 | 3 | 0 | 0.0 | 0.0 | 0.00 | 0.00 | 0.00 | 93 | 1007.9 |
| 20260509091009 | 3 | 0 | 0.0 | 0.0 | 0.00 | 0.00 | 0.00 | 92 | 1007.9 |
| 20260509090009 | 3 | 0 | 0.0 | 0.0 | 0.00 | 0.00 | 0.00 | 91 | 1007.9 |
| 20260509085008 | 3 | 0 | 0.0 | 0.0 | 0.00 | 0.00 | 0.00 | 91 | 1008.0 |
| 20260509084008 | 3 | 0 | 0.0 | 0.0 | 0.00 | 0.00 | 0.00 | 89 | 1008.0 |
| 20260509083009 | 4 | 0 | 0.0 | 0.0 | 0.00 | 0.00 | 0.00 | 88 | 1008.1 |
| 20260509082008 | 4 | 0 | 0.0 | 0.0 | 0.00 | 0.00 | 0.00 | 88 | 1008.0 |
| 20260509081008 | 4 | 0 | 0.0 | 0.0 | 0.00 | 0.00 | 0.00 | 88 | 1008.1 |
| 20260509080009 | 4 | 0 | 0.0 | 0.0 | 0.00 | 0.00 | 0.00 | 89 | 1008.2 |
| 20260509075008 | 4 | 0 | 0.0 | 0.0 | 0.00 | 0.00 | 0.00 | 90 | 1008.2 |
| 20260509074008 | 4 | 0 | 0.0 | 0.0 | 0.00 | 0.00 | 0.00 | 89 | 1008.3 |
| 20260509073009 | 4 | 0 | 0.0 | 0.0 | 0.00 | 0.00 | 0.00 | 89 | 1008.3 |
| 20260509072008 | 4 | 0 | 0.0 | 0.0 | 0.00 | 0.00 | 0.00 | 88 | 1008.3 |
| 20260509071008 | 5 | 0 | 0.0 | 0.0 | 0.00 | 0.00 | 0.00 | 88 | 1008.4 |
| 20260509070009 | 5 | 0 | 0.0 | 0.0 | 0.00 | 0.00 | 0.00 | 87 | 1008.6 |
| 20260509065008 | 5 | 0 | 0.0 | 0.0 | 0.00 | 0.00 | 0.00 | 86 | 1008.5 |
| 20260509063008 | 5 | 0 | 0.0 | 0.0 | 0.00 | 0.00 | 0.00 | 87 | 1008.7 |
| 20260509061009 | 5 | 0 | 0.0 | 0.0 | 0.00 | 0.00 | 0.00 | 86 | 1008.7 |
| 20260509060008 | 5 | 0 | 0.0 | 0.0 | 0.00 | 0.00 | 0.00 | 85 | 1008.8 |
| 20260509055009 | 5 | 0 | 0.0 | 8.0 | 0.00 | 0.00 | 0.00 | 85 | 1008.9 |
| 20260509053009 | 5 | 0 | 0.0 | 0.0 | 0.00 | 0.00 | 0.00 | 86 | 1009.1 |
| 20260509052008 | 5 | 0 | 0.0 | 0.0 | 0.00 | 0.00 | 0.00 | 86 | 1009.2 |
| 20260509051009 | 5 | 0 | 0.0 | 0.0 | 0.00 | 0.00 | 0.00 | 87 | 1009.3 |
| 20260509050008 | 5 | 0 | 0.0 | 0.0 | 0.00 | 0.00 | 0.00 | 87 | 1009.3 |
| 20260509045008 | 5 | 0 | 0.0 | 0.0 | 0.00 | 0.00 | 0.00 | 86 | 1009.2 |
| 20260509044008 | 5 | 0 | 0.0 | 0.0 | 0.00 | 0.00 | 0.00 | 85 | 1009.3 |
| 20260509043009 | 4 | 0 | 0.0 | 0.0 | 0.00 | 0.00 | 0.00 | 85 | 1009.3 |
| 20260509040009 | 5 | 0 | 0.0 | 0.0 | 0.00 | 0.00 | 0.00 | 83 | 1009.3 |
| 20260509035008 | 5 | 0 | 0.0 | 0.0 | 0.00 | 0.00 | 0.00 | 82 | 1009.3 |
| 20260509034008 | 5 | 0 | 0.0 | 0.0 | 0.00 | 0.00 | 0.00 | 80 | 1009.3 |
| 20260509032008 | 5 | 0 | 0.0 | 1.6 | 0.00 | 0.00 | 0.00 | 80 | 1009.4 |
| 20260509031008 | 5 | 0 | 0.0 | 0.0 | 0.00 | 0.00 | 0.00 | 79 | 1009.3 |
| 20260509030008 | 6 | 0 | 0.0 | 0.0 | 0.00 | 0.00 | 0.00 | 79 | 1009.4 |
| 20260509025008 | 6 | 0 | 0.0 | 0.0 | 0.00 | 0.00 | 0.00 | 79 | 1009.5 |
| 20260509024008 | 6 | 0 | 0.0 | 9.7 | 0.00 | 0.00 | 0.00 | 78 | 1009.5 |
| 20260509023008 | 6 | 0 | 0.0 | 6.4 | 0.00 | 0.00 | 0.00 | 77 | 1009.5 |
| 20260509022009 | 6 | 0 | 0.0 | 8.0 | 0.00 | 0.00 | 0.00 | 77 | 1009.4 |
| 20260509021008 | 6 | 0 | 0.0 | 0.0 | 0.00 | 0.00 | 0.00 | 75 | 1009.5 |
| 20260509020009 | 7 | 0 | 0.0 | 6.4 | 0.00 | 0.00 | 0.00 | 77 | 1009.5 |
| 20260509014008 | 7 | 1 | 1.6 | 17.7 | 0.00 | 0.00 | 0.00 | 73 | 1009.5 |
| 20260509013009 | 7 | 1 | 1.6 | 17.7 | 0.00 | 0.00 | 0.00 | 72 | 1009.3 |
| 20260509012009 | 7 | 1 | 4.8 | 19.3 | 0.00 | 0.00 | 0.00 | 72 | 1009.2 |
| 20260509011008 | 7 | 1 | 9.7 | 22.5 | 0.00 | 0.00 | 0.00 | 70 | 1009.1 |
| 20260509005008 | 8 | 0 | 0.0 | 14.5 | 0.00 | 0.00 | 0.00 | 66 | 1008.8 |
| 20260509003009 | 9 | 353 | 4.8 | 19.3 | 0.00 | 0.00 | 0.00 | 65 | 1008.7 |
| 20260509002008 | 9 | 300 | 9.7 | 24.1 | 0.00 | 0.00 | 0.00 | 62 | 1008.7 |
| 20260509001008 | 9 | 284 | 4.8 | 20.9 | 0.00 | 0.00 | 0.00 | 61 | 1008.7 |
| 20260509000008 | 9 | 235 | 14.5 | 22.5 | 0.00 | 0.00 | 0.00 | 61 | 1008.5 |
| 20260508234008 | 10 | 203 | 4.8 | 25.7 | 0.00 | 0.00 | 0.00 | 59 | 1008.4 |
| 20260508232009 | 10 | 205 | 9.7 | 22.5 | 0.00 | 0.00 | 0.00 | 60 | 1008.3 |
| 20260508231008 | 10 | 205 | 14.5 | 27.4 | 0.00 | 0.00 | 0.00 | 57 | 1008.3 |
| 20260508230008 | 10 | 211 | 11.3 | 24.1 | 0.00 | 0.00 | 0.00 | 60 | 1008.4 |
| 20260508225008 | 10 | 226 | 11.3 | 27.4 | 0.00 | 0.00 | 0.00 | 61 | 1008.5 |